createdAt,value
2023-03-29T00:02:04.963Z,95337.41
2023-03-29T00:04:52.869Z,95333.16
2023-03-29T00:07:26.125Z,95338.19
2023-03-29T00:10:13.833Z,95337.34
2023-03-29T00:12:47.908Z,95338.19
2023-03-29T00:15:34.830Z,95339.09
2023-03-29T00:18:14.836Z,95341.56
2023-03-29T00:21:12.863Z,95344.06
2023-03-29T00:24:06.876Z,95345.59
2023-03-29T00:26:53.892Z,95344.00
2023-03-29T00:29:26.936Z,95344.78
2023-03-29T00:32:13.845Z,95348.09
2023-03-29T00:34:50.784Z,95338.16
2023-03-29T00:37:44.870Z,95345.66
2023-03-29T00:40:39.831Z,95348.94
2023-03-29T00:43:26.911Z,95344.78
2023-03-29T00:46:06.957Z,95334.59
2023-03-29T00:48:53.858Z,95339.59
2023-03-29T00:51:29.912Z,95337.97
2023-03-29T00:54:24.883Z,95336.25
2023-03-29T00:57:02.460Z,95336.25
2023-03-29T00:59:49.831Z,95334.38
2023-03-29T01:02:28.225Z,95337.72
2023-03-29T01:05:22.887Z,95330.97
2023-03-29T01:08:11.205Z,95325.81
2023-03-29T01:11:10.895Z,95341.44
2023-03-29T01:13:57.825Z,95347.94
2023-03-29T01:16:44.898Z,95339.50
2023-03-29T01:19:24.225Z,95349.50
2023-03-29T01:22:34.929Z,95345.97
2023-03-29T01:25:29.957Z,95336.00
2023-03-29T01:28:23.857Z,95334.25
2023-03-29T01:31:08.482Z,95340.56
2023-03-29T01:34:00.882Z,95338.94
2023-03-29T01:36:46.908Z,95328.69
2023-03-29T01:39:33.916Z,95332.84
2023-03-29T01:42:33.936Z,95341.00
2023-03-29T01:45:37.881Z,95334.25
2023-03-29T01:48:55.976Z,95341.59
2023-03-29T01:52:02.899Z,95341.41
2023-03-29T01:55:11.905Z,95347.88
2023-03-29T01:58:08.877Z,95349.41
2023-03-29T02:01:01.226Z,95355.06
2023-03-29T02:03:48.907Z,95359.06
2023-03-29T02:06:39.864Z,95360.34
2023-03-29T02:09:14.975Z,95362.75
2023-03-29T02:12:04.946Z,95356.84
2023-03-29T02:14:44.896Z,95360.06
2023-03-29T02:17:33.929Z,95360.06
2023-03-29T02:20:28.936Z,95370.06
2023-03-29T02:23:20.951Z,95363.09
2023-03-29T02:26:03.985Z,95365.38
2023-03-29T02:28:58.902Z,95369.38
2023-03-29T02:31:52.883Z,95369.78
2023-03-29T02:34:39.874Z,95373.66
2023-03-29T02:37:36.908Z,95378.44
2023-03-29T02:40:24.882Z,95377.59
2023-03-29T02:43:01.081Z,95379.91
2023-03-29T02:45:49.853Z,95370.47
2023-03-29T02:48:33.938Z,95375.41
2023-03-29T02:51:35.853Z,95370.78
2023-03-29T02:54:26.891Z,95375.50
2023-03-29T02:57:14.924Z,95374.44
2023-03-29T03:00:13.909Z,95382.44
2023-03-29T03:03:02.103Z,95373.88
2023-03-29T03:05:36.233Z,95377.03
2023-03-29T03:08:22.884Z,95371.09
2023-03-29T03:10:55.990Z,95378.28
2023-03-29T03:13:42.888Z,95380.34
2023-03-29T03:16:23.029Z,95382.41
2023-03-29T03:19:16.885Z,95382.13
2023-03-29T03:22:12.900Z,95378.00
2023-03-29T03:24:59.860Z,95377.72
2023-03-29T03:27:40.880Z,95380.53
2023-03-29T03:30:27.865Z,95389.59
2023-03-29T03:33:07.901Z,95382.81
2023-03-29T03:36:08.921Z,95381.09
2023-03-29T03:39:02.877Z,95386.00
2023-03-29T03:41:56.877Z,95395.78
2023-03-29T03:44:44.893Z,95394.94
2023-03-29T03:47:25.923Z,95402.50
2023-03-29T03:50:20.861Z,95403.84
2023-03-29T03:53:07.907Z,95403.38
2023-03-29T03:55:40.970Z,95404.72
2023-03-29T03:58:28.929Z,95410.09
2023-03-29T04:01:02.192Z,95408.44
2023-03-29T04:03:49.027Z,95408.22
2023-03-29T04:06:28.911Z,95414.47
2023-03-29T04:09:22.898Z,95411.34
2023-03-29T04:12:09.927Z,95416.69
2023-03-29T04:14:49.903Z,95415.72
2023-03-29T04:17:43.972Z,95421.91
2023-03-29T04:20:33.920Z,95415.75
2023-03-29T04:23:07.037Z,95420.41
2023-03-29T04:26:08.906Z,95414.09
2023-03-29T04:28:55.879Z,95424.75
2023-03-29T04:31:36.030Z,95422.81
2023-03-29T04:34:29.904Z,95426.50
2023-03-29T04:37:28.914Z,95426.25
2023-03-29T04:40:25.878Z,95424.91
2023-03-29T04:43:12.908Z,95426.97
2023-03-29T04:45:46.103Z,95428.19
2023-03-29T04:48:32.893Z,95437.13
2023-03-29T04:51:07.057Z,95431.97
2023-03-29T04:53:54.894Z,95423.31
2023-03-29T04:56:34.914Z,95436.19
2023-03-29T04:59:21.925Z,95435.06
2023-03-29T05:01:55.032Z,95432.66
2023-03-29T05:04:42.979Z,95433.97
2023-03-29T05:07:24.910Z,95433.19
2023-03-29T05:10:19.947Z,95435.44
2023-03-29T05:13:06.908Z,95436.03
2023-03-29T05:15:41.236Z,95441.94
2023-03-29T05:18:27.912Z,95441.25
2023-03-29T05:21:01.217Z,95440.56
2023-03-29T05:23:47.912Z,95441.41
2023-03-29T05:26:22.376Z,95443.22
2023-03-29T05:29:08.961Z,95438.84
2023-03-29T05:31:43.091Z,95443.19
2023-03-29T05:34:29.902Z,95440.66
2023-03-29T05:37:09.972Z,95440.41
2023-03-29T05:40:05.658Z,95446.44
2023-03-29T05:42:45.957Z,95445.19
2023-03-29T05:45:26.946Z,95444.94
2023-03-29T05:48:00.031Z,95441.38
2023-03-29T05:50:46.987Z,95443.53
2023-03-29T05:53:20.170Z,95439.81
2023-03-29T05:56:07.136Z,95435.41
2023-03-29T05:58:40.056Z,95437.47
2023-03-29T06:01:26.959Z,95442.72
2023-03-29T06:04:00.931Z,95444.41
2023-03-29T06:06:48.906Z,95444.84
2023-03-29T06:09:22.770Z,95450.78
2023-03-29T06:12:10.972Z,95444.09
2023-03-29T06:14:44.067Z,95449.38
2023-03-29T06:17:30.975Z,95446.81
2023-03-29T06:20:14.927Z,95446.75
2023-03-29T06:23:09.028Z,95441.97
2023-03-29T06:25:57.951Z,95434.06
2023-03-29T06:28:31.057Z,95436.00
2023-03-29T06:31:20.122Z,95440.31
2023-03-29T06:33:54.052Z,95444.47
2023-03-29T06:36:41.938Z,95441.75
2023-03-29T06:39:15.050Z,95453.50
2023-03-29T06:42:10.083Z,95447.59
2023-03-29T06:44:50.064Z,95446.66
2023-03-29T06:47:37.969Z,95442.22
2023-03-29T06:50:18.933Z,95446.31
2023-03-29T06:53:12.932Z,95452.84
2023-03-29T06:55:59.958Z,95452.63
2023-03-29T06:58:39.956Z,95454.66
2023-03-29T07:01:33.950Z,95458.16
2023-03-29T07:04:27.965Z,95460.00
2023-03-29T07:07:19.004Z,95460.47
2023-03-29T07:10:01.985Z,95464.97
2023-03-29T07:12:55.982Z,95464.31
2023-03-29T07:15:49.996Z,95463.31
2023-03-29T07:18:44.029Z,95470.06
2023-03-29T07:21:30.977Z,95459.72
2023-03-29T07:24:04.862Z,95468.69
2023-03-29T07:27:03.257Z,95469.66
2023-03-29T07:29:38.160Z,95461.03
2023-03-29T07:32:25.056Z,95463.38
2023-03-29T07:35:04.951Z,95459.53
2023-03-29T07:37:58.974Z,95459.00
2023-03-29T07:40:45.969Z,95466.84
2023-03-29T07:43:25.948Z,95458.56
2023-03-29T07:46:14.091Z,95465.47
2023-03-29T07:48:53.957Z,95460.75
2023-03-29T07:51:48.026Z,95465.78
2023-03-29T07:54:34.994Z,95460.94
2023-03-29T07:57:08.204Z,95462.00
2023-03-29T07:59:54.990Z,95464.41
2023-03-29T08:02:29.100Z,95473.13
2023-03-29T08:05:23.128Z,95468.16
2023-03-29T08:08:03.104Z,95473.53
2023-03-29T08:10:50.972Z,95472.97
2023-03-29T08:13:24.096Z,95467.16
2023-03-29T08:16:11.963Z,95470.72
2023-03-29T08:18:51.980Z,95466.63
2023-03-29T08:21:38.976Z,95470.75
2023-03-29T08:24:13.067Z,95464.81
2023-03-29T08:26:59.969Z,95471.69
2023-03-29T08:29:42.966Z,95461.78
2023-03-29T08:32:29.987Z,95466.91
2023-03-29T08:35:06.742Z,95461.03
2023-03-29T08:38:00.993Z,95461.84
2023-03-29T08:40:54.973Z,95463.56
2023-03-29T08:43:49.984Z,95460.19
2023-03-29T08:46:36.040Z,95470.38
2023-03-29T08:49:24.990Z,95468.69
2023-03-29T08:52:12.014Z,95464.47
2023-03-29T08:55:03.017Z,95462.75
2023-03-29T08:57:40.861Z,95468.69
2023-03-29T09:00:50.083Z,95467.00
2023-03-29T09:03:38.214Z,95463.59
2023-03-29T09:06:23.006Z,95460.97
2023-03-29T09:09:03.187Z,95465.19
2023-03-29T09:12:04.999Z,95460.91
2023-03-29T09:14:45.114Z,95454.13
2023-03-29T09:17:47.633Z,95458.28
2023-03-29T09:20:35.137Z,95457.38
2023-03-29T09:23:33.008Z,95458.28
2023-03-29T09:26:17.092Z,95452.47
2023-03-29T09:28:57.018Z,95452.44
2023-03-29T09:31:44.834Z,95455.81
2023-03-29T09:34:35.000Z,95463.44
2023-03-29T09:37:28.018Z,95457.50
2023-03-29T09:40:46.029Z,95471.13
2023-03-29T09:43:46.041Z,95460.09
2023-03-29T09:46:53.999Z,95454.22
2023-03-29T09:49:35.293Z,95456.78
2023-03-29T09:52:24.034Z,95452.56
2023-03-29T09:54:58.151Z,95463.59
2023-03-29T09:57:45.017Z,95464.38
2023-03-29T10:00:26.049Z,95457.59
2023-03-29T10:03:20.029Z,95463.50
2023-03-29T10:06:09.087Z,95455.91
2023-03-29T10:08:53.957Z,95455.03
2023-03-29T10:11:53.131Z,95460.06
2023-03-29T10:14:53.012Z,95453.25
2023-03-29T10:17:54.105Z,95451.38
2023-03-29T10:20:46.090Z,95439.34
2023-03-29T10:23:25.125Z,95442.59
2023-03-29T10:26:23.035Z,95439.84
2023-03-29T10:29:01.570Z,95432.97
2023-03-29T10:31:50.136Z,95431.19
2023-03-29T10:34:35.104Z,95428.59
2023-03-29T10:37:31.066Z,95426.94
2023-03-29T10:41:01.286Z,95430.41
2023-03-29T10:44:02.058Z,95431.91
2023-03-29T10:46:57.033Z,95416.41
2023-03-29T10:49:57.410Z,95423.28
2023-03-29T10:52:47.034Z,95423.53
2023-03-29T10:55:20.149Z,95429.66
2023-03-29T10:58:22.037Z,95422.06
2023-03-29T11:01:02.042Z,95416.16
2023-03-29T11:04:05.255Z,95419.69
2023-03-29T11:06:43.121Z,95414.69
2023-03-29T11:09:56.050Z,95411.34
2023-03-29T11:13:01.351Z,95409.72
2023-03-29T11:15:57.168Z,95397.13
2023-03-29T11:18:59.050Z,95409.09
2023-03-29T11:21:52.037Z,95391.31
2023-03-29T11:24:46.895Z,95397.22
2023-03-29T11:27:52.045Z,95390.44
2023-03-29T11:31:04.384Z,95398.06
2023-03-29T11:33:51.064Z,95390.47
2023-03-29T11:37:05.053Z,95378.66
2023-03-29T11:40:14.093Z,95392.25
2023-03-29T11:43:03.067Z,95382.00
2023-03-29T11:45:48.174Z,95382.88
2023-03-29T11:48:41.066Z,95378.69
2023-03-29T11:51:30.782Z,95378.72
2023-03-29T11:54:29.095Z,95380.41
2023-03-29T11:57:09.285Z,95383.84
2023-03-29T12:00:15.059Z,95374.53
2023-03-29T12:02:58.127Z,95379.59
2023-03-29T12:05:52.079Z,95375.34
2023-03-29T12:08:44.059Z,95378.75
2023-03-29T12:11:33.157Z,95374.50
2023-03-29T12:14:27.991Z,95371.09
2023-03-29T12:17:10.035Z,95372.81
2023-03-29T12:20:06.086Z,95372.81
2023-03-29T12:22:46.063Z,95371.94
2023-03-29T12:25:44.084Z,95372.81
2023-03-29T12:28:40.107Z,95375.34
2023-03-29T12:31:42.116Z,95362.63
2023-03-29T12:34:35.419Z,95362.59
2023-03-29T12:37:59.068Z,95363.38
2023-03-29T12:40:59.133Z,95364.16
2023-03-29T12:43:50.094Z,95371.69
2023-03-29T12:46:25.790Z,95368.16
2023-03-29T12:49:34.127Z,95362.88
2023-03-29T12:52:10.209Z,95358.47
2023-03-29T12:55:09.086Z,95359.13
2023-03-29T12:57:48.169Z,95359.81
2023-03-29T13:00:54.149Z,95362.22
2023-03-29T13:03:59.822Z,95350.31
2023-03-29T13:06:58.113Z,95351.91
2023-03-29T13:09:50.431Z,95347.63
2023-03-29T13:12:49.086Z,95344.19
2023-03-29T13:15:29.126Z,95339.84
2023-03-29T13:18:28.093Z,95344.81
2023-03-29T13:21:08.084Z,95341.41
2023-03-29T13:24:17.102Z,95334.56
2023-03-29T13:27:52.081Z,95338.75
2023-03-29T13:30:35.902Z,95333.66
2023-03-29T13:33:50.115Z,95324.34
2023-03-29T13:37:04.108Z,95329.34
2023-03-29T13:40:04.087Z,95328.47
2023-03-29T13:43:06.085Z,95320.00
2023-03-29T13:45:46.171Z,95322.47
2023-03-29T13:48:36.189Z,95308.13
2023-03-29T13:51:24.400Z,95316.59
2023-03-29T13:54:26.201Z,95320.00
2023-03-29T13:57:17.955Z,95315.75
2023-03-29T14:00:22.117Z,95319.94
2023-03-29T14:03:09.154Z,95312.38
2023-03-29T14:06:04.378Z,95307.28
2023-03-29T14:08:43.312Z,95314.00
2023-03-29T14:11:33.111Z,95308.94
2023-03-29T14:14:09.220Z,95302.19
2023-03-29T14:16:56.202Z,95298.81
2023-03-29T14:19:39.246Z,95301.38
2023-03-29T14:22:28.112Z,95298.84
2023-03-29T14:25:02.232Z,95303.03
2023-03-29T14:27:49.166Z,95311.44
2023-03-29T14:30:33.230Z,95307.19
2023-03-29T14:33:21.122Z,95308.91
2023-03-29T14:36:01.396Z,95308.06
2023-03-29T14:39:02.137Z,95306.31
2023-03-29T14:41:58.129Z,95309.66
2023-03-29T14:44:37.444Z,95304.59
2023-03-29T14:47:36.135Z,95302.88
2023-03-29T14:50:10.231Z,95307.94
2023-03-29T14:52:58.123Z,95302.00
2023-03-29T14:56:00.267Z,95302.84
2023-03-29T14:58:53.132Z,95299.56
2023-03-29T15:01:36.169Z,95294.53
2023-03-29T15:04:30.158Z,95297.84
2023-03-29T15:07:17.124Z,95295.28
2023-03-29T15:09:52.251Z,95291.03
2023-03-29T15:12:40.153Z,95288.41
2023-03-29T15:15:17.464Z,95291.72
2023-03-29T15:18:05.182Z,95291.69
2023-03-29T15:20:51.147Z,95291.69
2023-03-29T15:23:54.154Z,95291.69
2023-03-29T15:26:50.136Z,95297.56
2023-03-29T15:29:53.149Z,95290.75
2023-03-29T15:32:49.226Z,95301.69
2023-03-29T15:35:36.206Z,95291.50
2023-03-29T15:38:09.313Z,95293.16
2023-03-29T15:40:56.220Z,95290.56
2023-03-29T15:43:29.327Z,95293.00
2023-03-29T15:46:20.156Z,95284.47
2023-03-29T15:48:53.315Z,95286.91
2023-03-29T15:51:40.154Z,95288.50
2023-03-29T15:54:21.190Z,95287.59
2023-03-29T15:57:22.277Z,95287.53
2023-03-29T16:00:13.132Z,95292.47
2023-03-29T16:02:47.593Z,95298.31
2023-03-29T16:05:34.152Z,95299.03
2023-03-29T16:08:07.337Z,95296.34
2023-03-29T16:10:55.161Z,95291.97
2023-03-29T16:13:28.273Z,95284.28
2023-03-29T16:16:17.195Z,95282.41
2023-03-29T16:18:57.749Z,95298.28
2023-03-29T16:21:44.159Z,95291.44
2023-03-29T16:24:26.302Z,95293.00
2023-03-29T16:27:13.250Z,95289.50
2023-03-29T16:29:46.402Z,95295.25
2023-03-29T16:32:33.196Z,95293.50
2023-03-29T16:35:06.378Z,95293.47
2023-03-29T16:37:53.157Z,95301.78
2023-03-29T16:40:26.692Z,95302.56
2023-03-29T16:43:13.165Z,95297.41
2023-03-29T16:45:46.371Z,95293.91
2023-03-29T16:48:33.160Z,95285.38
2023-03-29T16:51:13.172Z,95292.78
2023-03-29T16:54:07.179Z,95288.50
2023-03-29T16:56:54.296Z,95287.56
2023-03-29T16:59:34.194Z,95286.78
2023-03-29T17:02:28.181Z,95290.88
2023-03-29T17:05:16.211Z,95291.59
2023-03-29T17:07:49.316Z,95287.31
2023-03-29T17:10:36.160Z,95288.06
2023-03-29T17:13:09.335Z,95297.19
2023-03-29T17:16:00.286Z,95297.88
2023-03-29T17:18:41.193Z,95295.22
2023-03-29T17:21:35.227Z,95297.53
2023-03-29T17:24:22.182Z,95305.78
2023-03-29T17:26:55.481Z,95305.63
2023-03-29T17:29:42.141Z,95306.25
2023-03-29T17:32:15.598Z,95314.59
2023-03-29T17:35:02.230Z,95321.94
2023-03-29T17:37:35.985Z,95324.28
2023-03-29T17:40:24.208Z,95320.88
2023-03-29T17:43:04.189Z,95318.25
2023-03-29T17:45:58.224Z,95315.56
2023-03-29T17:48:52.219Z,95323.06
2023-03-29T17:51:46.208Z,95327.97
2023-03-29T17:54:33.197Z,95329.50
2023-03-29T17:57:14.264Z,95328.50
2023-03-29T18:00:08.218Z,95325.00
2023-03-29T18:02:55.400Z,95324.00
2023-03-29T18:05:28.397Z,95322.97
2023-03-29T18:08:15.263Z,95334.66
2023-03-29T18:10:48.410Z,95338.69
2023-03-29T18:13:35.222Z,95341.97
2023-03-29T18:16:08.596Z,95339.31
2023-03-29T18:18:55.226Z,95340.03
2023-03-29T18:21:28.507Z,95339.09
2023-03-29T18:24:15.222Z,95348.31
2023-03-29T18:26:55.207Z,95347.41
2023-03-29T18:29:42.282Z,95344.81
2023-03-29T18:32:22.307Z,95344.75
2023-03-29T18:35:09.326Z,95343.88
2023-03-29T18:37:42.584Z,95349.66
2023-03-29T18:40:31.243Z,95347.94
2023-03-29T18:43:04.468Z,95347.78
2023-03-29T18:45:51.238Z,95353.41
2023-03-29T18:48:24.358Z,95349.06
2023-03-29T18:51:16.223Z,95353.22
2023-03-29T18:53:49.328Z,95363.19
2023-03-29T18:56:36.318Z,95356.50
2023-03-29T18:59:12.435Z,95358.09
2023-03-29T19:01:59.233Z,95363.78
2023-03-29T19:04:32.451Z,95362.03
2023-03-29T19:07:19.216Z,95369.50
2023-03-29T19:09:53.426Z,95368.47
2023-03-29T19:12:40.265Z,95367.56
2023-03-29T19:15:14.574Z,95370.78
2023-03-29T19:18:01.288Z,95364.00
2023-03-29T19:20:35.576Z,95367.22
2023-03-29T19:23:22.249Z,95372.94
2023-03-29T19:26:03.592Z,95369.41
2023-03-29T19:28:50.249Z,95366.75
2023-03-29T19:31:23.473Z,95370.06
2023-03-29T19:34:16.295Z,95369.22
2023-03-29T19:36:49.355Z,95370.72
2023-03-29T19:39:43.225Z,95367.38
2023-03-29T19:42:31.248Z,95369.81
2023-03-29T19:45:04.467Z,95371.47
2023-03-29T19:47:54.809Z,95358.91
2023-03-29T19:50:29.724Z,95352.97
2023-03-29T19:53:17.241Z,95356.25
2023-03-29T19:55:50.486Z,95351.06
2023-03-29T19:58:37.229Z,95345.88
2023-03-29T20:01:10.480Z,95345.84
2023-03-29T20:03:57.271Z,95345.72
2023-03-29T20:06:31.422Z,95346.47
2023-03-29T20:09:18.385Z,95346.34
2023-03-29T20:11:59.331Z,95350.47
2023-03-29T20:14:53.279Z,95347.81
2023-03-29T20:17:42.310Z,95341.78
2023-03-29T20:20:16.565Z,95336.69
2023-03-29T20:23:08.262Z,95342.47
2023-03-29T20:25:41.753Z,95343.31
2023-03-29T20:28:28.261Z,95338.16
2023-03-29T20:31:08.265Z,95332.97
2023-03-29T20:33:57.061Z,95332.84
2023-03-29T20:36:38.359Z,95324.47
2023-03-29T20:39:32.246Z,95333.59
2023-03-29T20:42:20.252Z,95335.13
2023-03-29T20:44:53.896Z,95345.06
2023-03-29T20:47:49.297Z,95340.69
2023-03-29T20:50:28.446Z,95335.50
2023-03-29T20:53:15.258Z,95335.34
2023-03-29T20:55:48.504Z,95339.47
2023-03-29T20:58:35.347Z,95334.44
2023-03-29T21:01:09.177Z,95332.63
2023-03-29T21:03:56.316Z,95332.59
2023-03-29T21:06:36.284Z,95335.03
2023-03-29T21:09:25.277Z,95334.13
2023-03-29T21:11:59.482Z,95329.94
2023-03-29T21:14:46.364Z,95335.72
2023-03-29T21:17:26.398Z,95336.41
2023-03-29T21:20:16.270Z,95325.38
2023-03-29T21:22:49.437Z,95321.03
2023-03-29T21:25:36.845Z,95326.78
2023-03-29T21:28:12.098Z,95335.78
2023-03-29T21:30:59.312Z,95335.63
2023-03-29T21:33:39.333Z,95333.84
2023-03-29T21:36:33.329Z,95330.41
2023-03-29T21:39:27.408Z,95323.81
2023-03-29T21:42:14.292Z,95320.31
2023-03-29T21:44:47.478Z,95304.38
2023-03-29T21:47:34.314Z,95308.41
2023-03-29T21:50:07.430Z,95321.69
2023-03-29T21:52:55.346Z,95314.06
2023-03-29T21:55:28.513Z,95316.53
2023-03-29T21:58:15.266Z,95297.22
2023-03-29T22:00:55.364Z,95293.06
2023-03-29T22:03:44.275Z,95300.63
2023-03-29T22:06:20.814Z,95302.38
2023-03-29T22:09:07.341Z,95289.03
2023-03-29T22:11:40.478Z,95287.34
2023-03-29T22:14:28.296Z,95289.84
2023-03-29T22:17:01.520Z,95293.22
2023-03-29T22:19:48.322Z,95295.78
2023-03-29T22:22:28.292Z,95300.88
2023-03-29T22:25:16.309Z,95293.28
2023-03-29T22:27:58.327Z,95300.88
2023-03-29T22:30:45.371Z,95296.69
2023-03-29T22:33:18.460Z,95291.69
2023-03-29T22:36:05.391Z,95299.22
2023-03-29T22:38:45.345Z,95284.06
2023-03-29T22:41:39.341Z,95285.69
2023-03-29T22:44:33.338Z,95288.13
2023-03-29T22:47:27.407Z,95288.94
2023-03-29T22:50:15.338Z,95291.44
2023-03-29T22:52:48.535Z,95297.28
2023-03-29T22:55:35.284Z,95299.84
2023-03-29T22:58:08.801Z,95293.06
2023-03-29T23:00:56.316Z,95297.91
2023-03-29T23:03:36.313Z,95306.13
2023-03-29T23:06:23.342Z,95304.25
2023-03-29T23:09:03.336Z,95300.06
2023-03-29T23:11:57.342Z,95305.66
2023-03-29T23:14:44.338Z,95302.22
2023-03-29T23:17:25.410Z,95307.09
2023-03-29T23:20:20.309Z,95306.34
2023-03-29T23:23:14.324Z,95303.75
2023-03-29T23:26:04.312Z,95303.56
2023-03-29T23:28:45.340Z,95308.34
2023-03-29T23:31:32.346Z,95310.69
2023-03-29T23:34:12.308Z,95305.56
2023-03-29T23:37:06.430Z,95303.06
2023-03-29T23:40:00.486Z,95300.72
2023-03-29T23:42:49.372Z,95285.78
2023-03-29T23:45:26.827Z,95288.28
2023-03-29T23:48:14.314Z,95284.97
2023-03-29T23:50:57.377Z,95285.59
2023-03-29T23:53:51.342Z,95284.41
2023-03-29T23:56:38.369Z,95281.63
2023-03-29T23:59:11.554Z,95280.47
